x

9439040 - Astoria, Or (asto3) Weather Station

7:00 - Mon 8th Feb 2016 All times are PST. -8 hours from GMT.

  • Wind
    6mph, 11mph gusts
  • Sea Temp 45°f
  • Luft Temp 54°f
  • Sea Pressure 1022.6mb
  • 9439040 - Astoria, Or
  • 9439040 - Astoria, Or

More Historic Weather Station data

Upgrade to MSW Pro to gain access to the past 30 days of data for over 8000 Wavebouys and Weather Stations around the globe.

Join Pro

Comparision Forecast

View Surf forecast
   
Mo 02/08 7:00 6 11 mph 1022.6mb 45f 54f
6:54 9 20 mph 1022.7mb 45f 54f
6:48 15 21 mph 1022.8mb 45f 54f
6:42 17 22 mph 1022.8mb 45f 55f
6:36 11 17 mph 1022.8mb 45f 55f
6:30 13 22 mph 1022.8mb 45f 56f
6:24 13 17 mph 1022.8mb 45f 55f
6:18 9 17 mph 1022.9mb 45f 56f
6:12 10 16 mph 1023mb 45f 55f
6:06 11 15 mph 1023mb 45f 56f
6:00 8 13 mph 1023mb 45f 56f
5:54 6 13 mph 1023.1mb 45f 56f
5:48  -  mph 1023mb 45f 56f
5:42  -  mph 1023.1mb 45f 55f
5:36  -  mph 1023.1mb 45f 56f
5:30  -  mph 1023.2mb 45f 56f
5:24  -  mph 1023.2mb 45f 57f
5:18  -  mph 1023.2mb 45f 57f
5:12  -  mph 1023.2mb 45f 57f
5:06  -  mph 1023.3mb 45f 56f
5:00 7 11 mph 1023.3mb 45f 58f
4:54 7 10 mph 1023.3mb 45f 58f
4:48 6 9 mph 1023.3mb 45f 58f
4:42 7 11 mph 1023.3mb 45f 57f
4:36 7 11 mph 1023.3mb 45f 59f
4:30 7 10 mph 1023.4mb 45f 58f
4:24 9 15 mph 1023.5mb 45f 59f
4:18 11 17 mph 1023.6mb 45f 58f
4:12 9 14 mph 1023.7mb 45f 59f
4:06 11 14 mph 1023.8mb 45f 59f
4:00 7 13 mph 1023.8mb 45f 58f
3:54 7 9 mph 1023.9mb 45f 59f
3:48 7 13 mph 1023.9mb 45f -
3:42 9 14 mph 1024mb 45f -
3:36 10 15 mph 1024mb 45f -
3:30 9 14 mph 1024.1mb 45f 58f
3:24 8 14 mph 1024.2mb 44f 58f
3:18 8 13 mph 1024.2mb 44f 58f
3:12 7 9 mph 1024.3mb 45f 59f
3:06 8 13 mph 1024.3mb 45f 57f
3:00 8 13 mph 1024.4mb 45f 57f
2:54 11 16 mph 1024.5mb 45f 55f
2:48 11 15 mph 1024.6mb 45f 54f
2:42 15 18 mph 1024.6mb 45f 54f
2:36 13 17 mph 1024.7mb 45f 54f
2:30 15 18 mph 1024.8mb 45f 53f
2:24 13 15 mph 1024.9mb 44f 56f
2:18 11 15 mph 1024.9mb 45f 57f
2:12 13 16 mph 1024.9mb 45f 56f
2:06 14 18 mph 1025mb 45f 55f
2:00 11 16 mph 1025.2mb 45f 56f
1:54 13 18 mph 1025.3mb 45f 56f
1:48  -  mph 1025.3mb 45f 57f
1:42  -  mph 1025.4mb 45f 56f
1:36  -  mph 1025.5mb 45f 56f
1:30 10 14 mph 1025.6mb 45f 55f
1:24 8 14 mph 1025.7mb 45f 54f
1:18 11 15 mph 1025.8mb 45f 53f
1:12 10 15 mph 1026mb 45f 53f
1:06 15 18 mph 1026.1mb 45f 53f
1:00 14 17 mph 1026.3mb 44f 53f
12:54 14 18 mph 1026.4mb 44f 53f
12:48 13 17 mph 1026.5mb 44f 52f
12:42 14 17 mph 1026.7mb 44f 53f
12:36 14 17 mph 1026.8mb 44f 52f
12:30 15 18 mph 1026.8mb 44f 52f
12:24 15 18 mph 1026.9mb 44f 52f
12:18 14 17 mph 1027mb 44f 52f
12:12 14 18 mph 1027.2mb 44f 52f
12:06 11 16 mph 1027.3mb 44f 51f
12:00 10 16 mph 1027.4mb 44f 51f
11:54 11 15 mph 1027.6mb 44f 51f
11:48 9 14 mph 1027.7mb 44f 51f
11:42 10 11 mph 1027.8mb 44f 51f
11:36 10 15 mph 1027.8mb 44f 51f
11:30 11 14 mph 1028mb 44f 51f
11:24 10 15 mph 1028.1mb 44f 50f
11:18 13 15 mph 1028.2mb 44f 50f
11:12 8 13 mph 1028.2mb 44f 50f
11:06 8 15 mph 1028.2mb 44f 49f
11:00 8 14 mph 1028.2mb 44f 49f
10:54 11 16 mph 1028.3mb 44f 49f
10:48 11 16 mph 1028.4mb 44f 49f
10:42 11 15 mph 1028.4mb 44f 49f
10:36 9 14 mph 1028.5mb 44f 49f
10:30 10 13 mph 1028.6mb 44f 49f
10:24 9 13 mph 1028.6mb 44f 48f
10:18 8 11 mph 1028.6mb 44f 49f
10:12 8 14 mph 1028.6mb 44f 48f
10:06 8 14 mph 1028.5mb 44f 48f
10:00 10 15 mph 1028.4mb 44f 48f
9:54 10 14 mph 1028.5mb 44f 47f
9:48 9 13 mph 1028.6mb 44f 47f
9:42 9 13 mph 1028.5mb 44f 47f
9:36 10 14 mph 1028.5mb 44f 47f
9:30 8 11 mph 1028.5mb 44f 47f
9:24 9 13 mph 1028.5mb 44f 47f
9:18 7 9 mph 1028.5mb 44f 47f
9:12 7 10 mph 1028.6mb 44f 47f
9:06 7 13 mph 1028.5mb 44f 47f
9:00 7 14 mph 1028.5mb 44f 47f
8:54 9 14 mph 1028.4mb 44f 46f
8:48 7 11 mph 1028.4mb 44f 46f
8:42 7 13 mph 1028.5mb 44f 46f
8:36 7 14 mph 1028.6mb 44f 46f
8:30 9 13 mph 1028.6mb 44f 46f
8:24 8 11 mph 1028.6mb 44f 46f
8:18 9 13 mph 1028.6mb 44f 46f
8:12 8 14 mph 1028.6mb 44f 45f
8:06 7 13 mph 1028.6mb 44f 45f
8:00 6 10 mph 1028.6mb 44f 45f
7:54 3 7 mph 1028.7mb 44f 45f
7:48 5 8 mph 1028.7mb 44f 46f
7:42 3 9 mph 1028.7mb 44f 46f
7:36 3 8 mph 1028.6mb 44f 46f
7:30 5 11 mph 1028.7mb 44f 45f
7:18 7 14 mph 1028.6mb 44f 46f
7:12 8 14 mph 1028.5mb 44f 46f
7:06 7 13 mph 1028.6mb 44f 46f
7:00 8 14 mph 1028.6mb 44f 46f
6:54 11 16 mph 1028.5mb 44f 46f
6:48 10 15 mph 1028.6mb 44f 45f
6:42 9 15 mph 1028.7mb 44f 46f
6:36 11 15 mph 1028.7mb 44f 46f
6:30 9 14 mph 1028.7mb 44f 46f
6:18 7 11 mph 1028.7mb 44f 45f
6:12 9 14 mph 1028.8mb 44f 45f
6:06 6 11 mph 1028.8mb 44f 45f
6:00 8 11 mph 1028.8mb 44f 46f
5:54 7 14 mph 1028.8mb 44f 46f
5:48 7 11 mph 1028.8mb 44f 46f
5:42 5 9 mph 1028.8mb 44f 46f
5:36 5 11 mph 1028.8mb 44f 46f
5:30 7 13 mph 1028.8mb 44f 46f
5:24 6 11 mph 1028.9mb 44f 46f
5:18 8 10 mph 1028.9mb 44f 46f
5:12 6 13 mph 1028.9mb 44f 46f
5:06 7 11 mph 1028.9mb 44f 46f
5:00 8 13 mph 1029mb 44f 46f
4:54 8 11 mph 1029mb 44f 46f
4:48 8 13 mph 1029.1mb 44f 46f
4:42 8 14 mph 1029.1mb 44f 46f
4:36 9 15 mph 1029.1mb 44f 46f
4:30 8 13 mph 1029.1mb 44f 46f
4:24 5 9 mph 1029mb 44f 46f
4:18 5 8 mph 1029mb 44f 46f
4:12 2 6 mph 1029mb 44f 46f
4:06 2 10 mph 1029mb 44f 46f
4:00 5 7 mph 1029mb 44f 46f
3:54 6 9 mph 1028.9mb 44f 46f
3:48 7 13 mph 1028.9mb 44f 46f
3:42 6 10 mph 1029mb 44f 45f
3:36 9 14 mph 1029.1mb 44f 46f
3:30 8 14 mph 1029.1mb 44f 46f
3:24 8 11 mph 1029.2mb 44f 46f
3:18 6 8 mph 1029.3mb 44f 46f
3:12 5 7 mph 1029.4mb 44f 46f
3:06 3 7 mph 1029.5mb 44f 46f
3:00 2 6 mph 1029.6mb 44f 46f
2:54 3 7 mph 1029.6mb 44f 46f
2:48 6 9 mph 1029.7mb 44f 46f
2:42 6 10 mph 1029.8mb 44f 46f
2:36 9 11 mph 1029.8mb 44f 46f
2:30 6 9 mph 1029.8mb 44f 46f
2:24 7 10 mph 1029.9mb 44f 46f
2:18 6 7 mph 1030mb 44f 46f
2:12 3 6 mph 1030mb 44f 46f
2:06 3 8 mph 1029.9mb 44f 46f
2:00 6 8 mph 1029.9mb 44f 46f
1:48  -  mph 1029.8mb 44f 47f
1:42  -  mph 1029.9mb 44f 47f
1:36  -  mph 1029.8mb 44f 47f
1:30 3 6 mph 1029.8mb 44f 47f
1:24 5 7 mph 1029.9mb 44f 47f
1:18 2 7 mph 1029.9mb 44f 47f
1:12 2 6 mph 1030mb 44f 47f
1:06 2 5 mph 1030.1mb 44f 47f
1:00 2 5 mph 1030.1mb 44f 47f
12:54 1 3 mph 1030.2mb 44f 47f
12:48 2 3 mph 1030.2mb 44f 47f
12:42 3 6 mph 1030.3mb 44f 47f
12:36 3 8 mph 1030.3mb 44f 47f
12:30 7 11 mph 1030.3mb 44f 47f
12:24 7 10 mph 1030.3mb 44f 47f
12:18 3 6 mph 1030.3mb 44f 47f
12:12 2 6 mph 1030.4mb 44f 47f
12:06 2 6 mph 1030.3mb 44f 47f
12:00 6 10 mph 1030.3mb 44f 47f
So 02/07 11:54 9 13 mph 1030.2mb 44f 47f
11:48 9 13 mph 1030.2mb 44f 47f
11:42 8 14 mph 1030.2mb 44f 48f
11:36 9 13 mph 1030.1mb 44f 48f
11:30 8 13 mph 1030.1mb 44f 48f
11:24 8 11 mph 1030.1mb 44f 48f
11:18 6 8 mph 1030.1mb 44f 49f
11:12 2 6 mph 1030.1mb 44f 48f
11:06 5 13 mph 1030.1mb 44f 48f
11:00 9 14 mph 1030.1mb 44f 48f
10:54 10 14 mph 1030.1mb 44f 48f
10:48 6 9 mph 1030.1mb 44f 49f
10:42 7 10 mph 1030.1mb 44f 49f
10:36 7 10 mph 1030.2mb 44f 49f
10:30 8 11 mph 1030.2mb 44f 49f
10:24 5 9 mph 1030.1mb 44f 49f
10:18 8 10 mph 1030.1mb 44f 49f
10:12 5 8 mph 1030.1mb 44f 50f
10:06 3 10 mph 1030.1mb 44f 51f
10:00 5 9 mph 1030.2mb 45f 51f
9:54 6 9 mph 1030.2mb 45f 51f
9:48 2 8 mph 1030.3mb 45f 51f
9:42 6 7 mph 1030.3mb 45f 51f
9:36 3 6 mph 1030.3mb 45f 51f
9:30 3 7 mph 1030.4mb 45f 51f
9:18 6 7 mph 1030.5mb 45f 51f
9:12 5 7 mph 1030.5mb 45f 51f
9:06 5 8 mph 1030.6mb 45f 50f
9:00 6 13 mph 1030.6mb 45f 50f
8:54 8 9 mph 1030.6mb 45f 50f
8:48 2 7 mph 1030.5mb 45f 51f
8:42 3 7 mph 1030.5mb 45f 51f
8:36 3 7 mph 1030.5mb 45f 51f
8:30 3 6 mph 1030.5mb 45f 52f
8:24 3 7 mph 1030.5mb 45f 52f
8:18 3 7 mph 1030.5mb 45f 51f
8:12 6 8 mph 1030.4mb 45f 52f
8:06 2 9 mph 1030.4mb 45f 52f
8:00 6 10 mph 1030.3mb 45f 53f
7:54 6 11 mph 1030.4mb 45f 53f
7:48 5 10 mph 1030.5mb 45f 53f
7:42 6 10 mph 1030.4mb 45f 53f
7:36 6 10 mph 1030.4mb 45f 54f
7:30 5 6 mph 1030.5mb 45f 53f
7:24 2 6 mph 1030.6mb 45f 53f
7:18 3 8 mph 1030.5mb 45f 53f
7:12 7 13 mph 1030.5mb 45f 54f
7:06 3 7 mph 1030.5mb 45f 53f
7:00 6 9 mph 1030.5mb 45f 53f
6:54 8 11 mph 1030.5mb 45f 53f
6:48 5 9 mph 1030.5mb 45f 54f
6:42 7 10 mph 1030.5mb 45f 53f
6:36 6 8 mph 1030.7mb 45f 53f
6:30 5 7 mph 1030.7mb 45f 53f
6:24 2 5 mph 1030.7mb 45f 54f
6:18 3 8 mph 1030.8mb 45f 54f
6:12 6 9 mph 1030.7mb 45f 54f
6:06 5 8 mph 1030.9mb 45f 54f
6:00  -  mph 1031mb 45f 55f
5:54  -  mph 1031.1mb 45f 55f
5:48  -  mph 1031mb 45f 55f
5:42  -  mph 1031.1mb 45f 55f
5:36  -  mph 1031mb 45f 53f
5:30 3 7 mph 1031mb 44f 54f
5:24 1 2 mph 1031.1mb 44f 55f
5:18  -  mph 1031.1mb 44f 55f
5:12  -  mph 1031.1mb 44f 55f
5:06  -  mph 1031.1mb 44f 55f
5:00  -  mph 1031.1mb 44f 55f
4:54  -  mph 1031.2mb 44f 55f
4:48  -  mph 1031.3mb 44f 55f
4:42  -  mph 1031.3mb 44f 54f
4:36  -  mph 1031.3mb 44f 56f
4:30 1 6 mph 1031.2mb 44f 58f
4:24 2 3 mph 1031.1mb 44f 57f
4:18 1 3 mph 1031.1mb 44f 58f
4:12 1 7 mph 1031.2mb 44f 57f
4:06  -  5 mph 1031.3mb 44f 56f
4:00 1 6 mph 1031.3mb 44f 56f
3:54 5 6 mph 1031.3mb 44f 56f
3:48 2 6 mph 1031.2mb 44f -
3:42 3 7 mph 1031.2mb 44f -
3:36 2 6 mph 1031mb 44f -
3:30 2 5 mph 1031mb 44f 58f
3:24  -  2 mph 1031.1mb 44f 59f
3:18  -  mph 1031.2mb 44f 58f
3:12  -  mph 1031.2mb 44f 57f
3:06  -  mph 1031.3mb 44f 56f
3:00  -  5 mph 1031.2mb 44f 57f
2:54 2 6 mph 1031.3mb 44f 57f
2:48 2 6 mph 1031.2mb 44f 56f
2:42 2 5 mph 1031.3mb 44f 56f
2:36 2 5 mph 1031.3mb 44f 55f
2:30 5 7 mph 1031.4mb 44f 55f
2:24 2 7 mph 1031.4mb 44f 55f
2:18 3 6 mph 1031.3mb 44f 56f
2:12 5 7 mph 1031.4mb 44f 55f
2:06 3 8 mph 1031.5mb 44f 55f
2:00 3 7 mph 1031.5mb 44f 54f
1:54 5 8 mph 1031.7mb 44f 53f
1:48  -  mph 1031.7mb 44f 53f
1:42  -  mph 1031.8mb 44f 52f
1:36  -  mph 1032mb 44f 52f
1:30 8 13 mph 1032mb 44f 54f
1:24 9 13 mph 1032.1mb 44f 54f
1:18 7 10 mph 1032.1mb 44f 53f
1:12 7 13 mph 1032.1mb 44f 54f
1:06 8 11 mph 1032.1mb 44f 53f
1:00 9 14 mph 1032.2mb 44f 53f
12:54 10 14 mph 1032.2mb 44f 53f
12:48 9 14 mph 1032.3mb 44f 52f
12:42 10 14 mph 1032.4mb 44f 52f
12:36 9 14 mph 1032.5mb 44f 52f
12:30 10 14 mph 1032.5mb 44f 51f
12:24 10 15 mph 1032.6mb 44f 51f
12:18 10 14 mph 1032.7mb 44f 50f
12:12 11 15 mph 1032.5mb 44f 49f
12:06 11 14 mph 1032.5mb 44f 50f
12:00 10 14 mph 1032.4mb 44f 50f
11:54 9 13 mph 1032.5mb 44f 50f
11:48 9 13 mph 1032.5mb 44f 50f
11:42 8 13 mph 1032.4mb 44f 49f
11:36 9 11 mph 1032.5mb 44f 49f
11:30 7 13 mph 1032.5mb 44f 49f
11:24 9 14 mph 1032.6mb 44f 48f
11:18 10 15 mph 1032.7mb 44f 48f
11:12 10 14 mph 1032.9mb 44f 48f
11:06 9 14 mph 1032.9mb 44f 48f
11:00 9 11 mph 1032.8mb 44f 47f
10:54 8 11 mph 1032.9mb 44f 47f
10:48 8 13 mph 1032.8mb 44f 47f
10:42 9 13 mph 1032.8mb 44f 47f
10:36 8 13 mph 1032.9mb 44f 47f
10:30 9 13 mph 1032.9mb 44f 46f
10:24 9 13 mph 1032.9mb 44f 47f
10:18 6 13 mph 1032.8mb 44f 47f
10:12 8 11 mph 1032.7mb 44f 47f
10:06 8 13 mph 1032.6mb 44f 46f
10:00 6 10 mph 1032.7mb 44f 46f
9:54 7 10 mph 1032.7mb 44f 46f
9:48 6 10 mph 1032.7mb 44f 47f
9:42 7 9 mph 1032.8mb 44f 47f
9:36 2 6 mph 1032.8mb 44f 47f
9:30 3 6 mph 1032.8mb 44f 47f
9:24 2 5 mph 1032.9mb 44f 47f
9:18  -  6 mph 1032.9mb 44f 48f
9:12 6 9 mph 1033mb 44f 46f
9:06 7 8 mph 1032.9mb 44f 46f
9:00 1 3 mph 1032.9mb 44f 46f
8:54 2 7 mph 1032.9mb 44f 46f
8:48 5 7 mph 1032.8mb 44f 45f
8:42 2 6 mph 1032.7mb 44f 44f
8:36 3 5 mph 1032.7mb 44f 44f
8:30 2 5 mph 1032.7mb 44f 44f
8:24 3 9 mph 1032.7mb 44f 44f
8:18 8 11 mph 1032.8mb 44f 44f
8:12 7 11 mph 1032.7mb 44f 44f
8:06 8 11 mph 1032.7mb 44f 43f
8:00 9 11 mph 1032.6mb 44f 43f
7:54 7 10 mph 1032.5mb 44f 43f
7:48 8 10 mph 1032.6mb 44f 43f
7:42 6 8 mph 1032.6mb 44f 43f
7:36 3 7 mph 1032.6mb 44f 43f
7:30 2 11 mph 1032.6mb - 43f
7:24 6 9 mph 1032.6mb - 43f
7:18  -  6 mph 1032.7mb 44f 43f
7:12 6 8 mph 1032.6mb 44f 43f
7:06 2 5 mph 1032.6mb 44f 43f
7:00 5 9 mph 1032.5mb 44f 43f
6:54 2 6 mph 1032.5mb 44f 43f
6:48 1 9 mph 1032.5mb 44f 43f
6:42 5 8 mph 1032.4mb 44f 43f
6:36 3 8 mph 1032.4mb 44f 43f
6:30 7 9 mph 1032.5mb 44f 43f
6:24 5 7 mph 1032.5mb 44f 43f
6:18 3 6 mph 1032.5mb 44f 44f
6:12 3 8 mph 1032.5mb 44f 44f
6:06 1 5 mph 1032.4mb 44f 44f
6:00 3 8 mph 1032.4mb 44f 44f
5:54 6 10 mph 1032.5mb 44f 44f
5:48 5 9 mph 1032.6mb 44f 44f
5:42 3 8 mph 1032.6mb 44f 44f
5:36 3 7 mph 1032.5mb 44f 44f
5:30 6 8 mph 1032.5mb 44f 44f
5:24 6 8 mph 1032.2mb 44f 44f
5:18 5 7 mph 1032.2mb 44f 44f
5:12 1 8 mph 1032.1mb 44f 44f
5:06 1 6 mph 1032.1mb 44f 44f
5:00 5 8 mph 1032mb 44f 44f
4:54 2 6 mph 1031.8mb 44f 44f
4:48 2 6 mph 1031.7mb 44f 44f
4:42 2 6 mph 1031.7mb 44f 44f
4:36 3 6 mph 1031.7mb 44f 44f
4:30 3 8 mph 1031.5mb 44f 44f
4:24 6 10 mph 1031.5mb 44f 44f
4:18 7 10 mph 1031.4mb 44f 44f
4:12 3 7 mph 1031.4mb 44f 44f
4:06 2 6 mph 1031.5mb 44f 44f
4:00 1 6 mph 1031.7mb 44f 44f
3:54 1 6 mph 1031.8mb 44f 44f
3:48 5 7 mph 1031.8mb 44f 44f
3:42 3 8 mph 1031.8mb 44f 43f
3:36 5 9 mph 1031.7mb 44f 44f
3:30 7 11 mph 1031.7mb 44f 43f
3:24 5 9 mph 1031.8mb 44f 43f
3:18 5 11 mph 1031.9mb 44f 43f
3:12 5 11 mph 1031.8mb 44f 43f
3:06 6 9 mph 1031.8mb 44f 43f
3:00 3 7 mph 1031.8mb 44f 43f
2:54 2 8 mph 1031.9mb 44f 43f
2:48 7 9 mph 1031.8mb 44f 43f
2:42 7 9 mph 1031.8mb 44f 43f
2:36 6 9 mph 1031.8mb 44f 43f
2:30 5 14 mph 1031.7mb 44f 43f
2:24 8 13 mph 1031.7mb 44f 43f
2:18 8 10 mph 1031.7mb 44f 43f
2:12 6 9 mph 1031.8mb 44f 43f
2:06 5 9 mph 1031.8mb 44f 43f
2:00 5 8 mph 1031.6mb 44f 43f
1:54 2 3 mph 1031.5mb 44f 43f
1:48  -  mph - 44f 43f
1:42  -  mph - 44f 43f
1:36  -  mph - 44f 43f
1:30 3 5 mph 1031.5mb 44f 43f
1:24  -  6 mph 1031.6mb 44f 43f
1:18 5 8 mph 1031.6mb 44f 43f
1:12 7 10 mph 1031.5mb 44f 44f
1:06 6 8 mph 1031.5mb 44f 43f
1:00 1 3 mph 1031.6mb 44f 43f
12:54 2 5 mph 1031.5mb 44f 43f
12:48 2 5 mph 1031.6mb 44f 43f
12:42  -  3 mph 1031.6mb 44f 43f
12:36 2 5 mph 1031.8mb 44f 43f
12:30  -  3 mph 1031.8mb 44f 43f
12:24 2 3 mph 1031.8mb 44f 43f
12:18 1 6 mph 1031.7mb 44f 43f
12:12 2 3 mph 1031.5mb 44f 43f
12:06 2 5 mph 1031.5mb 44f 43f
12:00 5 6 mph 1031.5mb 44f 44f
Sa 02/06 11:54 1 3 mph 1031.3mb 44f 43f
11:48 1 2 mph 1031.2mb 44f 43f
11:42 5 8 mph 1031.5mb 44f 44f
11:36 2 5 mph 1031.5mb 44f 43f
11:30  -  2 mph 1031.6mb 44f 43f
11:24  -  8 mph 1031.6mb 44f 44f
11:18 7 9 mph 1031.5mb 44f 44f
11:12 2 6 mph 1031.3mb 44f 44f
11:06 5 10 mph 1031.1mb 44f 44f
11:00 8 10 mph 1030.9mb 44f 44f
10:54 2 3 mph 1030.9mb 44f 44f
10:48 1 9 mph 1031.1mb - -
10:42 3 5 mph 1031.1mb - -
10:36  -  5 mph 1031mb - -
10:30 2 5 mph 1030.9mb 44f 44f
10:24 1 3 mph 1031mb 44f 44f
10:18 2 3 mph 1030.9mb 44f 44f
10:12  -  3 mph 1031mb 44f 44f
10:06 2
mph
1031mb 44f 44f
10:00  -  1 mph 1030.9mb 44f 43f
9:54  -  2 mph 1031mb 44f 44f
9:48  -  2 mph 1030.9mb 44f 44f
9:42 1 2 mph 1030.9mb 44f 44f
9:36 2 5 mph 1030.8mb 44f 44f
9:30 2 3 mph 1030.6mb 44f 44f
9:24 1 3 mph 1030.6mb 44f 44f
9:18 1 2 mph 1030.8mb 44f 44f
9:12  -  2 mph 1030.9mb 44f 44f
9:06 2 3 mph 1030.8mb 44f 45f
9:00 3 6 mph 1030.7mb 44f 45f
8:54 2 3 mph 1030.6mb 44f 45f
8:48 1 5 mph 1030.6mb 44f 45f
8:42 2 5 mph 1030.6mb 44f 45f
8:36 3 8 mph 1030.4mb 44f 45f
8:30 3 7 mph 1030.4mb 44f 46f
8:24 2 8 mph 1030.5mb 44f 45f
8:18 3 7 mph 1030.6mb 44f 45f
8:12 5 10 mph 1030.9mb 44f 45f
8:06 5 8 mph 1030.8mb 44f 45f
8:00 2 3 mph 1030.7mb 44f 45f
7:54  -  2 mph 1030.7mb 44f 46f
7:48 2 5 mph 1030.9mb 44f 46f
7:42 2 5 mph 1030.8mb 44f 46f
7:36 2 3 mph 1030.6mb 44f 46f
7:30 2 5 mph 1030.5mb 44f 46f
7:24 2 6 mph 1030.5mb 44f 46f
7:18 3 5 mph 1030.4mb 44f 46f
7:12  -  6 mph 1030.5mb 44f 45f
7:06 2 6 mph 1030.3mb 44f 46f
7:00 3 6 mph 1030.2mb 44f 46f
6:54 2 5 mph 1030.2mb 44f 46f
6:48 1 3 mph 1030.3mb 44f 46f
6:42  -  2 mph 1030.4mb 44f 46f
6:36  -  1 mph 1030.7mb 44f 46f
6:30  -  1 mph 1030.8mb 44f 46f
6:24  -  1 mph 1030.9mb 44f 46f
6:18  -  2 mph 1030.9mb 44f 46f
6:12  -  3 mph 1030.9mb 44f 46f
6:06  -  5 mph 1030.9mb 44f 46f
6:00 2 6 mph 1030.9mb 44f 47f
5:54 1 6 mph 1030.8mb 44f 46f
5:48  -  mph 1030.7mb 44f 46f
5:42  -  mph 1030.6mb 44f 46f
5:36  -  mph 1030.4mb 44f 47f
5:30 1 3 mph 1030.3mb 44f 47f
5:24  -  2 mph 1030.4mb 44f 47f
5:18  -  2 mph 1030.5mb 44f 47f
5:12 1 2 mph 1030.6mb 44f 47f
5:06 1 3 mph 1030.7mb 44f 47f
5:00 2 3 mph 1030.6mb 44f 47f
4:54  -  3 mph 1030.5mb 44f 47f
4:48  -  2 mph 1030.4mb 44f 47f
4:42 1 3 mph 1030.4mb 44f 47f
4:36 3 6 mph 1030.4mb 44f 47f
4:30 1 3 mph 1030.4mb 44f 48f
4:24 3 6 mph 1030.3mb 44f 47f
4:18 2 5 mph 1030.4mb 44f 47f
4:12 5 6 mph 1030.5mb 44f 48f
4:06 3 6 mph 1030.5mb 44f 48f
4:00 5 8 mph 1030.5mb 44f 49f
3:54 5 8 mph 1030.5mb 44f 48f
3:48 6 8 mph 1030.6mb 44f -
3:42 6 7 mph 1030.7mb 44f -
3:36 6 9 mph 1030.6mb 44f -
3:30 6 7 mph 1030.7mb 44f 49f
3:24 6 8 mph 1030.7mb 44f 49f
3:18 6 9 mph 1030.7mb 44f 49f
3:12 6 8 mph 1030.6mb 44f 48f
3:06 7 8 mph 1030.6mb 44f 48f
3:00 5 7 mph 1030.6mb 44f 48f
2:54 6 8 mph 1030.6mb 44f 48f
2:48 6 11 mph 1030.7mb 44f 48f
2:42 6 9 mph 1030.7mb 44f 48f
2:36 7 10 mph 1030.8mb 44f 48f
2:30 7 11 mph 1030.8mb 44f 48f
2:24 5 8 mph 1030.8mb 44f 48f
2:18 3 7 mph 1030.9mb 44f 48f
2:12 3 6 mph 1031mb 44f 48f
2:06 6 8 mph 1030.9mb 44f 48f
2:00  -  mph 1030.9mb 44f 48f
1:54  -  mph 1031.1mb 44f 48f
1:48 6 10 mph 1031.3mb 44f 48f
1:42 3 7 mph 1031.4mb 44f 48f
1:36 2 5 mph 1031.4mb 44f 48f
1:30 3 6 mph 1031.5mb 44f 47f
1:24  -  3 mph 1031.5mb 44f 47f
1:18 2 7 mph 1031.6mb 44f 47f
1:12 1 6 mph 1031.7mb 44f 47f
1:06 3 6 mph 1031.7mb 44f 46f
1:00 5 10 mph 1031.7mb 44f 47f
12:54 5 7 mph 1031.8mb 44f 46f
12:48 2 5 mph 1031.7mb 44f 46f
12:42 3 6 mph 1031.8mb 44f 46f
12:36 3 7 mph 1031.9mb 44f 46f
12:30 3 7 mph 1032mb 44f 46f
12:24 2 6 mph 1032mb 44f 46f
12:18 3 7 mph 1032mb 44f 45f
12:12 3 7 mph 1032.1mb 44f 45f
12:06 2 7 mph 1032.1mb 44f 45f
12:00 3 7 mph 1032.2mb 44f 45f
11:54 2 7 mph 1032.3mb 44f 45f
11:48 1 9 mph 1032.6mb 44f 45f
11:42 3 7 mph 1032.5mb 44f 45f
11:36 6 9 mph 1032.4mb 44f 45f
11:30 7 9 mph 1032.4mb 44f 44f
11:24 6 8 mph 1032.5mb 44f 45f
11:18 5 9 mph 1032.6mb 44f 45f
11:12 7 8 mph 1032.8mb 44f 44f
11:06 6 8 mph 1032.9mb 44f 44f
11:00 3 6 mph 1032.9mb 44f 44f
10:54 5 8 mph 1032.8mb 44f 44f
10:48 5 8 mph 1032.7mb 44f 44f
10:42 5 8 mph 1032.6mb 44f 44f
10:36 6 8 mph 1032.6mb 44f 44f
10:30 5 7 mph 1032.5mb 44f 44f
10:24 5 7 mph 1032.6mb 44f 44f
10:18 6 8 mph 1032.5mb 44f 44f
10:12 5 8 mph 1032.5mb 44f 44f
10:06 6 9 mph 1032.5mb 44f 44f
10:00 6 8 mph 1032.4mb 44f 44f
9:54 3 8 mph 1032.5mb 44f 44f
9:48 5 8 mph 1032.4mb 44f 44f
9:42 6 9 mph 1032.4mb 44f 44f
9:36 7 9 mph 1032.5mb 44f 44f
9:30 7 8 mph 1032.4mb 44f 44f
9:24 6 10 mph 1032.3mb 44f 44f
9:18 6 9 mph 1032.2mb 44f 44f
9:12 6 8 mph 1032.1mb 44f 44f
9:06 6 9 mph 1032mb 44f 44f
9:00 6 9 mph 1032mb 44f 44f
8:54 7 9 mph 1032mb 44f 44f
8:48 6 7 mph 1031.9mb 44f 44f
8:42 6 10 mph 1031.9mb 44f 44f
8:36 7 8 mph 1031.9mb 44f 44f
8:30 7 8 mph 1031.9mb 44f 44f
8:24 6 8 mph 1031.8mb 44f 44f
8:18 6 10 mph 1031.8mb 44f 44f
8:12 7 10 mph 1031.7mb 44f 45f
8:06 8 10 mph 1031.6mb 44f 45f
8:00 3 5 mph 1031.5mb 44f 46f
7:54 2 5 mph 1031.5mb 44f 46f
7:48 3 6 mph 1031.5mb 44f 46f
7:42 3 5 mph 1031.4mb 44f 46f
7:36 3
mph
1031.5mb 44f 46f
7:30 3 5 mph 1031.5mb 44f 46f
7:24 3 5 mph 1031.5mb 44f 46f
7:18 2 3 mph 1031.5mb 44f 47f
7:12 2 3 mph 1031.5mb 44f 47f
7:06 2 3 mph 1031.5mb 44f 46f
7:00  -  1 mph 1031.6mb 44f 46f
6:54  -  2 mph 1031.5mb 44f 46f
6:48 2 3 mph 1031.5mb 44f 47f
6:42  -  1 mph 1031.4mb 44f 46f
6:36  -  2 mph 1031.4mb 44f 46f
6:30 1 2 mph 1031.3mb 44f 47f
6:24 1
mph
1031.3mb 44f 47f
6:18  -  1 mph 1031.2mb 44f 47f
6:12  -  2 mph 1031.1mb 44f 47f
6:06 2 3 mph 1031mb 44f 46f
6:00 2 3 mph 1031mb 44f 46f
5:54 2 3 mph 1031mb 44f 47f
5:48 2 3 mph 1030.9mb 44f 47f
5:42 2 5 mph 1030.9mb 44f 47f
5:36 2 5 mph 1030.7mb 44f 47f
5:30 2 5 mph 1030.8mb 44f 47f
5:24 5 7 mph 1030.7mb 44f 47f
5:18 2 8 mph 1030.6mb 44f 47f
5:12 6 7 mph 1030.6mb 44f 47f
5:06 7 9 mph 1030.6mb 44f 48f
5:00 6 8 mph 1030.6mb 44f 47f
4:54 5 10 mph 1030.6mb 44f 47f
4:48 6 9 mph 1030.7mb 44f 47f
4:42 7 11 mph 1030.5mb 44f 48f
4:36 7 10 mph 1030.3mb 44f 48f
4:30 8 10 mph 1030.2mb 44f 48f
4:24 8 11 mph 1030.2mb 44f 47f
4:18 7 10 mph 1030.1mb 44f 47f
4:12 6 9 mph 1029.9mb 44f 47f
4:06 5 6 mph 1029.7mb 44f 47f
4:00 5 8 mph 1029.6mb 44f 47f
3:54 5 7 mph 1029.5mb 44f 47f
3:48 5 8 mph 1029.5mb 44f 47f
3:42 6 8 mph 1029.7mb 44f 47f
3:36 6 9 mph 1029.6mb 44f 47f
3:30 5 8 mph 1029.5mb 44f 47f
3:24 5 8 mph 1029.5mb 44f 47f
3:18 1 11 mph 1029.4mb 44f 47f
3:12 7 14 mph 1029.4mb 44f 47f
3:06 8 15 mph 1029.3mb 44f 47f
3:00 8 14 mph 1029.3mb 44f 47f
2:54 8 14 mph 1029.1mb 44f 47f
2:48 8 14 mph 1029mb 44f 48f
2:42 9 16 mph 1029mb 44f 48f
2:36 9 17 mph 1029mb 44f 48f
2:30 14 23 mph 1028.9mb 44f 48f
2:24 10 14 mph 1028.7mb 44f 48f
2:18 10 15 mph 1028.6mb 44f 48f
2:12 13 18 mph 1028.6mb 44f 48f
2:06 14 16 mph 1028.6mb 44f 48f
2:00 9 11 mph 1028.6mb 44f 48f
1:54 7 11 mph 1028.5mb 44f 48f
1:48  -  mph - 44f 48f
1:42  -  mph - 44f 48f
1:36  -  mph - 44f 48f
1:30 9 14 mph 1028.2mb 44f 48f
1:24 9 14 mph 1028.1mb 44f 48f
1:18 10 13 mph 1028mb 44f 48f
1:12 9 11 mph 1027.9mb 44f 48f
1:06 8 17 mph 1027.8mb 44f 48f
1:00 10 16 mph 1027.7mb 44f 48f
12:54 8 11 mph 1027.7mb 44f 48f
12:48 8 11 mph 1027.7mb 44f 48f
12:42 5 7 mph 1027.7mb 44f 47f
12:36 6 7 mph 1027.6mb 44f 47f
12:30 3 9 mph 1027.7mb 44f 47f
12:24 7 15 mph 1027.6mb 44f 48f
12:18 8 13 mph 1027.6mb 44f 48f
12:12 7 9 mph 1027.5mb 44f 48f
12:06 6 10 mph 1027.5mb 44f 48f
12:00 7 13 mph 1027.4mb 44f 48f
Fr 02/05 11:54 9 17 mph 1027.4mb 44f 48f
11:48 15 21 mph 1027.3mb 44f 49f
11:42 15 20 mph 1027.4mb 44f 49f
11:36 13 16 mph 1027.1mb 44f 49f
11:30 9 15 mph 1027mb 44f 49f
11:24 7 8 mph 1026.9mb 44f 49f
11:18 7 9 mph 1026.9mb 44f 48f
11:12 8 9 mph 1026.8mb 44f 48f
11:06 10 14 mph 1026.8mb 44f 48f
11:00 9 14 mph 1026.7mb 44f 48f
10:54 9 15 mph 1026.5mb 44f 48f
10:48 13 16 mph 1026.3mb 44f 48f
10:42 9 15 mph 1026.3mb 44f 48f
10:36 8 14 mph 1026mb 44f 48f
10:30 10 14 mph 1025.9mb 44f 49f
10:24 7 10 mph 1025.9mb 44f 49f
10:18 6 13 mph 1025.7mb 44f 49f
10:12 8 11 mph 1025.8mb 44f 49f
10:06 8 10 mph 1025.6mb 44f 49f
10:00 7 11 mph 1025.5mb 44f 48f
9:54 8 13 mph 1025.4mb 44f 49f
9:48 8 11 mph 1025.4mb 44f 49f
9:42 6 9 mph 1025.6mb 44f 48f
9:36 7 11 mph 1025.5mb 44f 48f
9:30 5 9 mph 1025.5mb 44f 48f
9:24 5 7 mph 1025.3mb 44f 47f
9:18 3 7 mph 1025.2mb 44f 47f
9:12 7 13 mph 1025.1mb 44f 47f
9:06 3 7 mph 1025.2mb 44f 47f
9:00 3 8 mph 1025.2mb 44f 47f
8:54 5 7 mph 1025.1mb 44f 48f
8:48 3 7 mph 1025mb 44f 48f
8:42  -  3 mph 1025.1mb 44f 47f
8:36 3 6 mph 1025.1mb 44f 48f
8:30 1 6 mph 1025.1mb 44f 48f
8:24 2 8 mph 1025.1mb 44f 48f
8:18 6 15 mph 1025mb 44f 49f
8:12 9 16 mph 1025.2mb 45f 49f
8:06 6 13 mph 1025.2mb 45f 49f
8:00 9 17 mph 1024.9mb 45f 49f
7:54 11 18 mph 1024.6mb 45f 49f
7:48 9 16 mph 1024.6mb 45f 49f
7:42 13 20 mph 1024.5mb 45f 49f
7:36 13 21 mph 1024.6mb 45f 49f
7:30 11 20 mph 1024.4mb 45f 49f
7:24 14 20 mph 1024.4mb 45f 49f
7:18 16 22 mph 1024.3mb 45f 49f
7:12 16 25 mph 1024.3mb 45f 50f
7:06 16 24 mph 1024.2mb 45f 50f
7:00 14 26 mph 1024.1mb 45f 49f
6:54 14 22 mph 1023.8mb 45f 49f
6:48 15 22 mph 1023.6mb 45f 50f
6:42 18 25 mph 1023.4mb 45f 50f
6:36 11 21 mph 1023.1mb 45f 50f
6:30 11 29 mph 1023mb 45f 50f
6:24 21 28 mph 1022.9mb 45f 51f
6:18 21 25 mph 1022.7mb 45f 51f
6:12 22 34 mph 1022.4mb 45f 51f
6:06 23 32 mph 1022.2mb 45f 52f
6:00 22 32 mph 1021.7mb 45f 52f
5:54 18 30 mph 1021.7mb 45f 52f
5:48 21 28 mph 1021.4mb 45f 52f
5:42 18 29 mph 1021.3mb 45f 51f
5:36 20 32 mph 1021.1mb 45f 51f
5:30 21 32 mph 1021.1mb 45f 52f
5:24 18 28 mph 1021mb 45f 51f
5:18 21 25 mph 1020.6mb 45f 52f
5:12 17 25 mph 1020.5mb 45f 52f
5:06 22 26 mph 1020.5mb 45f 52f
5:00 22 31 mph 1020mb 45f 52f
4:54 20 25 mph 1020.1mb 45f 52f
4:48 25 34 mph 1019.8mb 45f 52f
4:42 18 31 mph 1020mb 45f 52f
4:36 20 30 mph 1020.1mb 45f 52f
4:30 20 33 mph 1020.1mb 45f 52f
4:24 26 40 mph 1020mb 45f 52f
4:18 21 28 mph 1019.5mb 45f 53f
4:12 20 39 mph 1019mb 44f 53f
4:06 21 32 mph 1018.9mb 44f 53f
4:00 21 31 mph 1018.8mb 44f 53f
3:54 21 34 mph 1018.6mb 44f 53f
3:48 21 34 mph 1018.5mb 44f 54f
2:48  -  mph - 44f 55f
2:42  -  mph - 44f 56f
2:36  -  mph - 44f 56f
2:30 17 25 mph 1017.9mb 44f 56f
2:24 17 32 mph 1018.2mb 44f 56f
2:18  -  mph 1018.3mb 44f 56f
2:12  -  mph 1018.3mb 44f 56f
2:06  -  mph 1018.5mb 45f 57f
2:00 23 37 mph 1018.7mb 45f 58f
1:54 15 29 mph 1018.9mb 44f 58f
1:48  -  mph 1018.7mb 44f 58f
1:42  -  mph 1019.2mb 44f 57f
1:36  -  mph 1019.3mb 44f 58f
1:30 11 15 mph 1019.6mb 44f 57f
1:24 5 6 mph 1019.7mb 44f 56f
1:18 2 5 mph 1019.9mb 44f 55f
1:12 5 7 mph 1020mb 44f 56f
1:06 5 6 mph 1020mb 44f 55f
1:00 3 7 mph 1020.1mb 44f 56f
12:54 3 8 mph 1020.2mb 44f 57f
12:48 3 10 mph 1020.2mb 44f 56f
12:42 7 14 mph 1020.1mb 44f 58f
12:36 10 15 mph 1020.1mb 44f 58f
12:30 5 8 mph 1019.9mb 44f 54f
12:24 2 8 mph 1019.9mb 44f 52f
12:18 3 10 mph 1019.9mb 44f 51f
12:12 5 14 mph 1020.2mb 44f 50f
12:06 7 14 mph 1020.4mb 44f 50f
12:00 3 13 mph 1020.4mb 44f 50f
11:54 6 11 mph 1020.1mb 44f 50f
11:48 6 11 mph 1020.1mb 44f 49f
11:42 5 9 mph 1020.3mb 44f 50f
11:36 7 13 mph 1020.3mb 44f 51f
11:30 5 9 mph 1020.4mb 44f 51f
11:24 5 8 mph 1020.8mb 44f 51f
11:18 5 9 mph 1020.9mb 44f 51f
11:12 5 10 mph 1021.1mb 44f 50f
11:06 3 9 mph 1021.2mb 44f 49f
11:00 5 8 mph 1021.3mb 44f 49f
10:54 5 9 mph 1021.5mb 44f 49f
10:48 5 8 mph - 44f 49f
10:42 5 10 mph - 44f 48f
10:36 8 14 mph - 44f 48f
10:30 6 9 mph 1021.8mb 44f 48f
10:24 8 15 mph 1022mb 44f 48f
10:18 8 11 mph 1022.1mb 44f 47f
10:12 2 10 mph 1022.1mb 44f 47f
10:06 3 8 mph 1022.1mb 44f 48f
10:00 3 7 mph 1022.3mb 44f 48f
9:54 3 9 mph 1022.2mb 44f 47f
9:48 5 8 mph 1022.2mb 44f 47f
9:42 3 6 mph 1022.2mb 44f 47f
9:36 3 6 mph 1022.1mb 44f 47f
9:30 3 7 mph 1022mb 44f 47f
9:24 3 5 mph 1022mb 44f 46f
9:18 3 6 mph 1022.1mb 44f 46f
9:12 2 6 mph 1022.1mb 44f 46f
9:06 1 3 mph 1022.2mb 44f 46f
9:00  -  5 mph 1022.3mb 44f 46f
8:54  -  6 mph 1022.3mb 44f 46f
8:48  -  3 mph 1022.4mb 44f 46f
8:42 1 2 mph 1022.4mb 44f 46f
8:36 2 6 mph 1022.4mb 44f 46f
8:30 3 6 mph 1022.4mb 44f 46f
8:24  -  5 mph 1022.4mb 44f 46f
8:18 3 6 mph 1022.5mb 44f 46f
8:12  -  7 mph 1022.5mb 44f 46f
8:06 2 7 mph 1022.6mb 44f 46f
8:00 1 6 mph 1022.6mb 44f 46f
7:54 3 8 mph 1022.6mb 44f 46f
7:48 6 10 mph 1022.6mb 44f 46f
7:42 5 8 mph 1022.7mb 44f 46f
7:36 3 8 mph 1022.7mb 44f 47f
7:30 2 5 mph 1022.8mb 44f 47f
7:24 3 6 mph 1022.7mb 44f 47f
7:18 2 6 mph 1022.8mb 44f 47f
7:12 2 5 mph 1022.9mb 44f 47f
7:06 1 3 mph 1023mb 44f 46f
7:00 2 3 mph 1023mb 44f 46f
6:54 2 3 mph 1023.1mb 44f 46f
6:48 2 3 mph 1023.2mb 44f 45f
6:42 1 2 mph 1023.3mb 44f 45f
6:36 1 3 mph 1023.4mb 44f 45f
6:30 2 6 mph 1023.5mb 44f 45f
6:24 2 5 mph 1023.6mb 44f 45f
6:18 2 6 mph 1023.6mb 44f 46f
6:12 5 6 mph 1023.6mb 44f 46f
6:06  -  2 mph 1023.7mb 44f 45f
6:00 1 5 mph 1023.8mb 44f 45f
5:54 1 7 mph 1023.9mb 44f 46f
5:48 2 7 mph 1023.9mb 44f 46f
5:42 7 11 mph 1024mb 44f 46f
5:36 5 8 mph 1024.1mb 44f 46f
5:30 3 6 mph 1024.2mb 44f 46f
5:24 3 10 mph 1024.2mb 44f 46f
5:18  -  8 mph 1024.3mb 44f 46f
5:12 5 10 mph 1024.4mb 44f 46f
5:06 8 11 mph 1024.4mb 44f 46f
5:00 7 11 mph 1024.5mb 44f 47f
4:54 9 11 mph 1024.7mb 44f 47f
4:48 8 13 mph 1024.8mb 44f 47f
4:42 3 9 mph 1024.8mb 44f 46f
4:36 6 7 mph 1024.8mb 44f 47f
4:30 3 9 mph 1024.8mb 44f 46f
4:24 3 9 mph 1024.6mb 44f 46f
4:18 6 7 mph 1024.7mb 44f 46f
4:12 5 6 mph 1024.8mb 44f 47f